Gondomar, Spain
Current Conditions -  °F | °C
As of 9:30 PM on Monday 24 Nov 2014 (Local Time) from LEVX Reporting Station
Broken Clouds Broken Clouds  
Wind Chill: 12°   Ceiling: 2800
Heat Index: 12°   Visibility: 6mi
Dew Point: 11°   Wind: 5mph
Humidity: 94%   Direction: 30°NNE
Pressure: 30.09"   Gusts: NA
Location:  42.11°N, 8.75°W
Report Text: LEVX 242030Z 03004KT 360V060 9999 BKN028 12/11 Q1019 NOSIG
Loading
Personal Weather Stations






























Interactive Weather Map New forecast layout! Learn more

10-Day Weather Forecast

Advertisements
Track Severe Weather on mobile